sensor_id;sensor_type;location;lat;lon;timestamp;P1;durP1;ratioP1;P2;durP2;ratioP2
4210;SDS011;2119;48.828;12.396;2022-09-16T00:02:11;11.50;;;9.83;;
4210;SDS011;2119;48.828;12.396;2022-09-16T00:07:11;21.37;;;9.93;;
4210;SDS011;2119;48.828;12.396;2022-09-16T00:12:11;13.77;;;10.73;;
4210;SDS011;2119;48.828;12.396;2022-09-16T00:17:11;12.73;;;9.20;;
4210;SDS011;2119;48.828;12.396;2022-09-16T00:22:11;11.60;;;10.03;;
4210;SDS011;2119;48.828;12.396;2022-09-16T00:27:11;10.60;;;9.50;;
4210;SDS011;2119;48.828;12.396;2022-09-16T00:32:12;9.83;;;8.93;;
4210;SDS011;2119;48.828;12.396;2022-09-16T00:37:12;11.70;;;9.63;;
4210;SDS011;2119;48.828;12.396;2022-09-16T00:42:12;10.10;;;9.00;;
4210;SDS011;2119;48.828;12.396;2022-09-16T00:47:13;12.13;;;10.00;;
4210;SDS011;2119;48.828;12.396;2022-09-16T00:52:15;11.00;;;9.90;;
4210;SDS011;2119;48.828;12.396;2022-09-16T00:57:16;13.20;;;10.07;;
4210;SDS011;2119;48.828;12.396;2022-09-16T01:02:17;13.40;;;10.20;;
4210;SDS011;2119;48.828;12.396;2022-09-16T01:07:19;12.47;;;10.60;;
4210;SDS011;2119;48.828;12.396;2022-09-16T01:12:23;12.97;;;11.00;;
4210;SDS011;2119;48.828;12.396;2022-09-16T01:32:52;13.97;;;11.27;;
4210;SDS011;2119;48.828;12.396;2022-09-16T01:38:06;14.27;;;11.63;;
4210;SDS011;2119;48.828;12.396;2022-09-16T01:43:17;14.97;;;11.50;;
4210;SDS011;2119;48.828;12.396;2022-09-16T01:48:21;16.20;;;11.70;;
4210;SDS011;2119;48.828;12.396;2022-09-16T01:53:31;12.57;;;11.13;;
4210;SDS011;2119;48.828;12.396;2022-09-16T01:58:35;15.30;;;11.37;;
4210;SDS011;2119;48.828;12.396;2022-09-16T02:03:38;14.20;;;9.87;;
4210;SDS011;2119;48.828;12.396;2022-09-16T02:08:41;12.80;;;10.83;;
4210;SDS011;2119;48.828;12.396;2022-09-16T02:18:47;12.27;;;10.13;;
4210;SDS011;2119;48.828;12.396;2022-09-16T02:23:50;14.90;;;11.60;;
4210;SDS011;2119;48.828;12.396;2022-09-16T02:28:52;16.70;;;11.10;;
4210;SDS011;2119;48.828;12.396;2022-09-16T02:39:31;15.00;;;9.83;;
4210;SDS011;2119;48.828;12.396;2022-09-16T02:44:32;12.50;;;9.93;;
4210;SDS011;2119;48.828;12.396;2022-09-16T02:49:41;12.70;;;11.13;;
4210;SDS011;2119;48.828;12.396;2022-09-16T02:54:48;13.90;;;12.10;;
4210;SDS011;2119;48.828;12.396;2022-09-16T02:59:51;14.67;;;11.90;;
4210;SDS011;2119;48.828;12.396;2022-09-16T03:04:52;15.73;;;12.33;;
4210;SDS011;2119;48.828;12.396;2022-09-16T03:09:52;17.30;;;13.43;;
4210;SDS011;2119;48.828;12.396;2022-09-16T03:30:31;23.10;;;15.10;;
4210;SDS011;2119;48.828;12.396;2022-09-16T03:35:33;17.50;;;15.03;;
4210;SDS011;2119;48.828;12.396;2022-09-16T03:40:35;18.97;;;14.80;;
4210;SDS011;2119;48.828;12.396;2022-09-16T03:45:35;20.67;;;14.43;;
4210;SDS011;2119;48.828;12.396;2022-09-16T03:50:35;16.93;;;14.03;;
4210;SDS011;2119;48.828;12.396;2022-09-16T03:55:36;19.90;;;15.83;;
4210;SDS011;2119;48.828;12.396;2022-09-16T04:00:36;21.70;;;15.30;;
4210;SDS011;2119;48.828;12.396;2022-09-16T04:05:36;18.50;;;15.10;;
4210;SDS011;2119;48.828;12.396;2022-09-16T04:10:36;17.10;;;13.93;;
4210;SDS011;2119;48.828;12.396;2022-09-16T04:15:37;22.10;;;15.37;;
4210;SDS011;2119;48.828;12.396;2022-09-16T04:20:37;18.00;;;15.03;;
4210;SDS011;2119;48.828;12.396;2022-09-16T04:25:38;19.67;;;15.70;;
4210;SDS011;2119;48.828;12.396;2022-09-16T04:30:39;19.73;;;15.07;;
4210;SDS011;2119;48.828;12.396;2022-09-16T04:35:40;18.93;;;14.90;;
4210;SDS011;2119;48.828;12.396;2022-09-16T04:40:40;22.27;;;16.17;;
4210;SDS011;2119;48.828;12.396;2022-09-16T04:45:40;22.80;;;16.27;;
4210;SDS011;2119;48.828;12.396;2022-09-16T04:50:40;20.80;;;15.20;;
4210;SDS011;2119;48.828;12.396;2022-09-16T04:55:41;22.17;;;17.20;;
4210;SDS011;2119;48.828;12.396;2022-09-16T05:00:41;21.13;;;16.33;;
4210;SDS011;2119;48.828;12.396;2022-09-16T05:05:41;24.30;;;17.00;;
4210;SDS011;2119;48.828;12.396;2022-09-16T05:10:42;22.20;;;16.40;;
4210;SDS011;2119;48.828;12.396;2022-09-16T05:15:42;22.35;;;15.60;;
4210;SDS011;2119;48.828;12.396;2022-09-16T05:20:42;22.37;;;16.93;;
4210;SDS011;2119;48.828;12.396;2022-09-16T05:25:42;22.93;;;16.00;;
4210;SDS011;2119;48.828;12.396;2022-09-16T05:30:42;21.53;;;16.70;;
4210;SDS011;2119;48.828;12.396;2022-09-16T05:35:43;22.10;;;16.92;;
4210;SDS011;2119;48.828;12.396;2022-09-16T05:40:44;23.20;;;17.60;;
4210;SDS011;2119;48.828;12.396;2022-09-16T05:45:49;21.73;;;16.87;;
4210;SDS011;2119;48.828;12.396;2022-09-16T05:50:53;20.77;;;16.67;;
4210;SDS011;2119;48.828;12.396;2022-09-16T05:55:56;21.40;;;15.70;;
4210;SDS011;2119;48.828;12.396;2022-09-16T06:01:00;24.73;;;16.13;;
4210;SDS011;2119;48.828;12.396;2022-09-16T06:06:01;22.33;;;16.50;;
4210;SDS011;2119;48.828;12.396;2022-09-16T06:11:03;23.53;;;17.57;;
4210;SDS011;2119;48.828;12.396;2022-09-16T06:16:04;20.07;;;15.13;;
4210;SDS011;2119;48.828;12.396;2022-09-16T06:21:08;21.40;;;15.97;;
4210;SDS011;2119;48.828;12.396;2022-09-16T06:26:10;19.07;;;15.40;;
4210;SDS011;2119;48.828;12.396;2022-09-16T06:31:14;20.90;;;16.50;;
4210;SDS011;2119;48.828;12.396;2022-09-16T06:36:16;22.77;;;16.50;;
4210;SDS011;2119;48.828;12.396;2022-09-16T06:41:18;19.83;;;15.67;;
4210;SDS011;2119;48.828;12.396;2022-09-16T06:46:19;19.07;;;16.17;;
4210;SDS011;2119;48.828;12.396;2022-09-16T06:51:21;22.70;;;17.37;;
4210;SDS011;2119;48.828;12.396;2022-09-16T06:56:21;21.97;;;15.80;;
4210;SDS011;2119;48.828;12.396;2022-09-16T07:01:23;18.50;;;15.27;;
4210;SDS011;2119;48.828;12.396;2022-09-16T07:06:24;23.20;;;17.20;;
4210;SDS011;2119;48.828;12.396;2022-09-16T07:11:26;23.30;;;18.20;;
4210;SDS011;2119;48.828;12.396;2022-09-16T07:16:27;16.98;;;13.48;;
4210;SDS011;2119;48.828;12.396;2022-09-16T07:21:27;18.90;;;13.70;;
4210;SDS011;2119;48.828;12.396;2022-09-16T07:26:30;12.60;;;11.37;;
4210;SDS011;2119;48.828;12.396;2022-09-16T07:31:31;17.10;;;11.23;;
4210;SDS011;2119;48.828;12.396;2022-09-16T07:36:36;17.00;;;12.87;;
4210;SDS011;2119;48.828;12.396;2022-09-16T07:41:37;14.97;;;12.63;;
4210;SDS011;2119;48.828;12.396;2022-09-16T07:46:38;18.50;;;11.27;;
4210;SDS011;2119;48.828;12.396;2022-09-16T07:51:38;11.13;;;9.90;;
4210;SDS011;2119;48.828;12.396;2022-09-16T07:56:39;10.70;;;9.48;;
4210;SDS011;2119;48.828;12.396;2022-09-16T08:01:40;14.23;;;7.53;;
4210;SDS011;2119;48.828;12.396;2022-09-16T08:06:40;8.27;;;6.60;;
4210;SDS011;2119;48.828;12.396;2022-09-16T08:11:40;8.47;;;7.03;;
4210;SDS011;2119;48.828;12.396;2022-09-16T08:16:41;8.97;;;6.50;;
4210;SDS011;2119;48.828;12.396;2022-09-16T08:21:41;7.32;;;6.63;;
4210;SDS011;2119;48.828;12.396;2022-09-16T08:26:41;13.70;;;7.63;;
4210;SDS011;2119;48.828;12.396;2022-09-16T08:31:42;7.80;;;6.83;;
4210;SDS011;2119;48.828;12.396;2022-09-16T08:36:42;9.53;;;8.63;;
4210;SDS011;2119;48.828;12.396;2022-09-16T08:46:56;9.77;;;8.80;;
4210;SDS011;2119;48.828;12.396;2022-09-16T08:51:58;13.13;;;9.60;;
4210;SDS011;2119;48.828;12.396;2022-09-16T08:57:00;11.23;;;10.13;;
4210;SDS011;2119;48.828;12.396;2022-09-16T09:02:12;10.40;;;9.50;;
4210;SDS011;2119;48.828;12.396;2022-09-16T09:07:26;10.37;;;9.37;;
4210;SDS011;2119;48.828;12.396;2022-09-16T09:22:53;11.57;;;10.37;;
4210;SDS011;2119;48.828;12.396;2022-09-16T09:28:41;13.13;;;10.80;;
4210;SDS011;2119;48.828;12.396;2022-09-16T09:43:33;9.70;;;8.90;;
4210;SDS011;2119;48.828;12.396;2022-09-16T09:53:36;9.90;;;9.00;;
4210;SDS011;2119;48.828;12.396;2022-09-16T09:58:40;9.63;;;8.83;;
4210;SDS011;2119;48.828;12.396;2022-09-16T10:03:42;11.83;;;10.43;;
4210;SDS011;2119;48.828;12.396;2022-09-16T10:08:44;10.47;;;8.40;;
4210;SDS011;2119;48.828;12.396;2022-09-16T10:13:47;7.97;;;7.23;;
4210;SDS011;2119;48.828;12.396;2022-09-16T10:18:58;9.23;;;6.93;;
4210;SDS011;2119;48.828;12.396;2022-09-16T10:24:00;7.73;;;7.03;;
4210;SDS011;2119;48.828;12.396;2022-09-16T10:29:01;8.80;;;7.90;;
4210;SDS011;2119;48.828;12.396;2022-09-16T10:34:03;8.57;;;7.73;;
4210;SDS011;2119;48.828;12.396;2022-09-16T10:39:04;8.60;;;7.80;;
4210;SDS011;2119;48.828;12.396;2022-09-16T10:44:12;8.20;;;7.30;;
4210;SDS011;2119;48.828;12.396;2022-09-16T10:49:14;8.27;;;6.57;;
4210;SDS011;2119;48.828;12.396;2022-09-16T10:54:23;8.93;;;6.97;;
4210;SDS011;2119;48.828;12.396;2022-09-16T10:59:24;13.00;;;6.90;;
4210;SDS011;2119;48.828;12.396;2022-09-16T11:04:33;8.23;;;7.43;;
4210;SDS011;2119;48.828;12.396;2022-09-16T11:30:26;6.90;;;3.90;;
4210;SDS011;2119;48.828;12.396;2022-09-16T11:45:48;4.13;;;3.80;;
4210;SDS011;2119;48.828;12.396;2022-09-16T11:51:06;5.23;;;4.83;;
4210;SDS011;2119;48.828;12.396;2022-09-16T11:56:11;5.27;;;4.83;;
4210;SDS011;2119;48.828;12.396;2022-09-16T12:12:07;4.90;;;4.60;;
4210;SDS011;2119;48.828;12.396;2022-09-16T12:17:13;4.67;;;4.37;;
4210;SDS011;2119;48.828;12.396;2022-09-16T12:32:45;4.40;;;3.00;;
4210;SDS011;2119;48.828;12.396;2022-09-16T12:37:47;3.13;;;2.83;;
4210;SDS011;2119;48.828;12.396;2022-09-16T12:43:07;2.87;;;2.67;;
4210;SDS011;2119;48.828;12.396;2022-09-16T12:58:46;2.53;;;2.33;;
4210;SDS011;2119;48.828;12.396;2022-09-16T13:03:55;5.83;;;3.20;;
4210;SDS011;2119;48.828;12.396;2022-09-16T13:08:57;4.30;;;3.90;;
4210;SDS011;2119;48.828;12.396;2022-09-16T13:13:58;3.03;;;2.70;;
4210;SDS011;2119;48.828;12.396;2022-09-16T13:19:12;3.33;;;2.90;;
4210;SDS011;2119;48.828;12.396;2022-09-16T13:29:44;4.00;;;3.70;;
4210;SDS011;2119;48.828;12.396;2022-09-16T13:34:45;4.78;;;4.00;;
4210;SDS011;2119;48.828;12.396;2022-09-16T13:39:45;4.50;;;4.20;;
4210;SDS011;2119;48.828;12.396;2022-09-16T13:44:45;6.57;;;4.93;;
4210;SDS011;2119;48.828;12.396;2022-09-16T13:49:52;6.43;;;4.57;;
4210;SDS011;2119;48.828;12.396;2022-09-16T13:54:54;4.83;;;3.43;;
4210;SDS011;2119;48.828;12.396;2022-09-16T14:15:23;4.73;;;4.33;;
4210;SDS011;2119;48.828;12.396;2022-09-16T14:20:24;7.50;;;4.50;;
4210;SDS011;2119;48.828;12.396;2022-09-16T14:30:25;3.90;;;3.60;;
4210;SDS011;2119;48.828;12.396;2022-09-16T14:35:25;3.80;;;3.50;;
4210;SDS011;2119;48.828;12.396;2022-09-16T14:40:26;7.30;;;5.60;;
4210;SDS011;2119;48.828;12.396;2022-09-16T14:45:28;4.40;;;3.80;;
4210;SDS011;2119;48.828;12.396;2022-09-16T14:50:30;4.00;;;3.70;;
4210;SDS011;2119;48.828;12.396;2022-09-16T14:55:32;5.50;;;3.67;;
4210;SDS011;2119;48.828;12.396;2022-09-16T15:00:37;3.70;;;3.40;;
4210;SDS011;2119;48.828;12.396;2022-09-16T15:05:41;6.60;;;4.27;;
4210;SDS011;2119;48.828;12.396;2022-09-16T15:10:47;4.83;;;3.87;;
4210;SDS011;2119;48.828;12.396;2022-09-16T15:15:49;6.10;;;4.30;;
4210;SDS011;2119;48.828;12.396;2022-09-16T15:21:11;4.10;;;3.73;;
4210;SDS011;2119;48.828;12.396;2022-09-16T15:26:39;3.70;;;3.40;;
4210;SDS011;2119;48.828;12.396;2022-09-16T15:31:40;8.10;;;2.70;;
4210;SDS011;2119;48.828;12.396;2022-09-16T15:36:53;3.70;;;3.40;;
4210;SDS011;2119;48.828;12.396;2022-09-16T15:47:21;3.53;;;3.23;;
4210;SDS011;2119;48.828;12.396;2022-09-16T15:52:22;4.83;;;4.23;;
4210;SDS011;2119;48.828;12.396;2022-09-16T15:57:34;6.45;;;4.53;;
4210;SDS011;2119;48.828;12.396;2022-09-16T16:07:42;4.27;;;3.97;;
4210;SDS011;2119;48.828;12.396;2022-09-16T16:12:43;4.80;;;4.37;;
4210;SDS011;2119;48.828;12.396;2022-09-16T16:17:47;3.73;;;3.50;;
4210;SDS011;2119;48.828;12.396;2022-09-16T16:22:49;4.57;;;4.27;;
4210;SDS011;2119;48.828;12.396;2022-09-16T16:27:49;4.23;;;3.93;;
4210;SDS011;2119;48.828;12.396;2022-09-16T16:32:49;6.67;;;5.40;;
4210;SDS011;2119;48.828;12.396;2022-09-16T16:37:49;7.50;;;4.80;;
4210;SDS011;2119;48.828;12.396;2022-09-16T16:42:49;4.93;;;3.73;;
4210;SDS011;2119;48.828;12.396;2022-09-16T16:47:50;5.90;;;4.80;;
4210;SDS011;2119;48.828;12.396;2022-09-16T16:52:50;5.90;;;4.40;;
4210;SDS011;2119;48.828;12.396;2022-09-16T16:57:52;10.93;;;6.00;;
4210;SDS011;2119;48.828;12.396;2022-09-16T17:02:52;6.80;;;6.10;;
4210;SDS011;2119;48.828;12.396;2022-09-16T17:07:52;9.17;;;6.27;;
4210;SDS011;2119;48.828;12.396;2022-09-16T17:12:52;6.67;;;6.00;;
4210;SDS011;2119;48.828;12.396;2022-09-16T17:17:52;10.37;;;7.20;;
4210;SDS011;2119;48.828;12.396;2022-09-16T17:22:52;7.03;;;6.07;;
4210;SDS011;2119;48.828;12.396;2022-09-16T17:27:53;17.47;;;13.10;;
4210;SDS011;2119;48.828;12.396;2022-09-16T17:32:54;7.50;;;6.80;;
4210;SDS011;2119;48.828;12.396;2022-09-16T17:37:54;6.60;;;5.80;;
4210;SDS011;2119;48.828;12.396;2022-09-16T17:42:54;7.40;;;6.83;;
4210;SDS011;2119;48.828;12.396;2022-09-16T17:47:54;7.00;;;6.40;;
4210;SDS011;2119;48.828;12.396;2022-09-16T17:52:56;7.20;;;6.50;;
4210;SDS011;2119;48.828;12.396;2022-09-16T17:57:56;7.40;;;6.90;;
4210;SDS011;2119;48.828;12.396;2022-09-16T18:02:56;9.63;;;7.00;;
4210;SDS011;2119;48.828;12.396;2022-09-16T18:07:57;7.83;;;7.10;;
4210;SDS011;2119;48.828;12.396;2022-09-16T18:12:57;6.35;;;5.88;;
4210;SDS011;2119;48.828;12.396;2022-09-16T18:17:57;6.83;;;6.23;;
4210;SDS011;2119;48.828;12.396;2022-09-16T18:22:57;7.17;;;6.67;;
4210;SDS011;2119;48.828;12.396;2022-09-16T18:27:58;7.50;;;6.90;;
4210;SDS011;2119;48.828;12.396;2022-09-16T18:32:58;8.27;;;7.67;;
4210;SDS011;2119;48.828;12.396;2022-09-16T18:37:58;9.27;;;7.70;;
4210;SDS011;2119;48.828;12.396;2022-09-16T18:42:58;12.60;;;7.30;;
4210;SDS011;2119;48.828;12.396;2022-09-16T18:47:59;8.63;;;7.87;;
4210;SDS011;2119;48.828;12.396;2022-09-16T18:52:59;11.13;;;7.80;;
4210;SDS011;2119;48.828;12.396;2022-09-16T18:57:59;8.27;;;7.47;;
4210;SDS011;2119;48.828;12.396;2022-09-16T19:02:59;10.60;;;9.60;;
4210;SDS011;2119;48.828;12.396;2022-09-16T19:08:00;28.77;;;18.30;;
4210;SDS011;2119;48.828;12.396;2022-09-16T19:13:00;17.40;;;13.07;;
4210;SDS011;2119;48.828;12.396;2022-09-16T19:18:00;16.83;;;15.00;;
4210;SDS011;2119;48.828;12.396;2022-09-16T19:23:00;17.10;;;13.23;;
4210;SDS011;2119;48.828;12.396;2022-09-16T19:28:00;14.20;;;12.43;;
4210;SDS011;2119;48.828;12.396;2022-09-16T19:33:02;9.00;;;8.10;;
4210;SDS011;2119;48.828;12.396;2022-09-16T19:38:02;8.82;;;8.13;;
4210;SDS011;2119;48.828;12.396;2022-09-16T19:43:02;8.43;;;7.73;;
4210;SDS011;2119;48.828;12.396;2022-09-16T19:48:02;11.13;;;10.10;;
4210;SDS011;2119;48.828;12.396;2022-09-16T19:53:03;10.47;;;9.40;;
4210;SDS011;2119;48.828;12.396;2022-09-16T19:58:03;12.43;;;9.70;;
4210;SDS011;2119;48.828;12.396;2022-09-16T20:03:03;10.00;;;9.00;;
4210;SDS011;2119;48.828;12.396;2022-09-16T20:08:03;10.40;;;8.50;;
4210;SDS011;2119;48.828;12.396;2022-09-16T20:13:04;8.57;;;7.50;;
4210;SDS011;2119;48.828;12.396;2022-09-16T20:18:04;7.10;;;6.50;;
4210;SDS011;2119;48.828;12.396;2022-09-16T20:23:04;10.90;;;9.90;;
4210;SDS011;2119;48.828;12.396;2022-09-16T20:28:05;10.67;;;9.57;;
4210;SDS011;2119;48.828;12.396;2022-09-16T20:33:05;9.47;;;8.53;;
4210;SDS011;2119;48.828;12.396;2022-09-16T20:38:05;11.40;;;8.50;;
4210;SDS011;2119;48.828;12.396;2022-09-16T20:43:06;8.67;;;7.90;;
4210;SDS011;2119;48.828;12.396;2022-09-16T20:48:06;10.70;;;7.97;;
4210;SDS011;2119;48.828;12.396;2022-09-16T20:53:08;9.30;;;8.40;;
4210;SDS011;2119;48.828;12.396;2022-09-16T20:58:09;10.33;;;9.33;;
4210;SDS011;2119;48.828;12.396;2022-09-16T21:03:10;11.15;;;8.80;;
4210;SDS011;2119;48.828;12.396;2022-09-16T21:08:11;10.40;;;9.40;;
4210;SDS011;2119;48.828;12.396;2022-09-16T21:13:11;8.73;;;7.90;;
4210;SDS011;2119;48.828;12.396;2022-09-16T21:18:11;9.63;;;7.80;;
4210;SDS011;2119;48.828;12.396;2022-09-16T21:23:11;10.03;;;9.00;;
4210;SDS011;2119;48.828;12.396;2022-09-16T21:28:12;8.90;;;8.00;;
4210;SDS011;2119;48.828;12.396;2022-09-16T21:33:12;7.97;;;7.20;;
4210;SDS011;2119;48.828;12.396;2022-09-16T21:38:12;7.05;;;6.35;;
4210;SDS011;2119;48.828;12.396;2022-09-16T21:43:14;7.60;;;6.90;;
4210;SDS011;2119;48.828;12.396;2022-09-16T21:48:14;7.33;;;6.73;;
4210;SDS011;2119;48.828;12.396;2022-09-16T21:53:15;8.32;;;7.63;;
4210;SDS011;2119;48.828;12.396;2022-09-16T21:58:15;6.63;;;6.13;;
4210;SDS011;2119;48.828;12.396;2022-09-16T22:03:15;7.77;;;7.17;;
4210;SDS011;2119;48.828;12.396;2022-09-16T22:08:15;13.90;;;7.23;;
4210;SDS011;2119;48.828;12.396;2022-09-16T22:13:15;8.37;;;7.67;;
4210;SDS011;2119;48.828;12.396;2022-09-16T22:18:16;7.17;;;6.63;;
4210;SDS011;2119;48.828;12.396;2022-09-16T22:23:16;7.23;;;6.60;;
4210;SDS011;2119;48.828;12.396;2022-09-16T22:28:16;4.47;;;4.17;;
4210;SDS011;2119;48.828;12.396;2022-09-16T22:33:16;5.57;;;3.20;;
4210;SDS011;2119;48.828;12.396;2022-09-16T22:38:16;4.57;;;3.10;;
4210;SDS011;2119;48.828;12.396;2022-09-16T22:43:16;3.03;;;2.83;;
4210;SDS011;2119;48.828;12.396;2022-09-16T22:48:17;2.70;;;2.50;;
4210;SDS011;2119;48.828;12.396;2022-09-16T22:53:17;3.10;;;2.83;;
4210;SDS011;2119;48.828;12.396;2022-09-16T22:58:18;3.40;;;2.43;;
4210;SDS011;2119;48.828;12.396;2022-09-16T23:03:18;3.20;;;2.90;;
4210;SDS011;2119;48.828;12.396;2022-09-16T23:08:19;2.93;;;2.73;;
4210;SDS011;2119;48.828;12.396;2022-09-16T23:13:19;2.90;;;2.70;;
4210;SDS011;2119;48.828;12.396;2022-09-16T23:18:20;3.13;;;2.83;;
4210;SDS011;2119;48.828;12.396;2022-09-16T23:23:21;3.00;;;2.80;;
4210;SDS011;2119;48.828;12.396;2022-09-16T23:28:21;2.70;;;2.50;;
4210;SDS011;2119;48.828;12.396;2022-09-16T23:33:21;2.65;;;2.45;;
4210;SDS011;2119;48.828;12.396;2022-09-16T23:38:21;2.80;;;2.60;;
4210;SDS011;2119;48.828;12.396;2022-09-16T23:43:23;3.37;;;2.73;;
4210;SDS011;2119;48.828;12.396;2022-09-16T23:48:23;2.97;;;2.77;;
4210;SDS011;2119;48.828;12.396;2022-09-16T23:53:23;2.37;;;2.17;;
4210;SDS011;2119;48.828;12.396;2022-09-16T23:58:24;2.20;;;2.10;;
